Time;durP1;ratioP1;P1;durP2;ratioP2;P2;SDS_P1;SDS_P2;PMS_P1;PMS_P2;Temp;Humidity;BMP_temperature;BMP_pressure;BME280_temperature;BME280_humidity;BME280_pressure;Samples;Min_cycle;Max_cycle;Signal;HPM_P1;HPM_P2
2022/05/01 00:02:28;;;;;;;0.88;0.60;;;20.10;49.30;;;;;;6265487;28;20653;-68
2022/05/01 00:05:29;;;;;;;0.75;0.50;;;20.10;49.40;;;;;;6265062;28;20029;-68
2022/05/01 00:08:31;;;;;;;0.85;0.50;;;20.10;49.30;;;;;;6265361;28;20711;-68
2022/05/01 00:11:32;;;;;;;0.70;0.50;;;20.10;49.40;;;;;;6265028;28;20053;-68
2022/05/01 00:14:33;;;;;;;0.40;0.40;;;20.10;49.30;;;;;;6264057;28;20063;-68
2022/05/01 00:17:33;;;;;;;0.47;0.43;;;20.10;49.40;;;;;;6231404;28;20084;-68
2022/05/01 00:20:34;;;;;;;0.70;0.50;;;20.10;49.40;;;;;;6240485;28;20037;-68
2022/05/01 00:23:35;;;;;;;0.43;0.40;;;20.10;49.30;;;;;;6239900;28;20040;-68
2022/05/01 00:26:36;;;;;;;0.45;0.45;;;20.10;49.30;;;;;;6240187;28;20037;-68
2022/05/01 00:29:36;;;;;;;1.63;0.70;;;20.10;49.30;;;;;;6222014;28;20032;-68
2022/05/01 00:39:17;;;;;;;0.45;0.43;;;20.10;49.40;;;;;;6263590;28;20041;-68
2022/05/01 00:42:18;;;;;;;1.00;0.47;;;20.10;49.40;;;;;;6263291;28;20537;-68
2022/05/01 00:45:19;;;;;;;0.80;0.40;;;20.10;49.30;;;;;;6263790;28;20031;-68
2022/05/01 00:48:20;;;;;;;0.52;0.43;;;20.10;49.40;;;;;;6264118;28;20021;-69
2022/05/01 00:51:22;;;;;;;0.80;0.70;;;20.10;49.40;;;;;;6263859;28;20033;-68
2022/05/01 00:54:24;;;;;;;0.73;0.50;;;20.10;49.40;;;;;;6245534;28;20021;-68
2022/05/01 00:57:26;;;;;;;1.13;0.70;;;20.10;49.40;;;;;;6257017;28;20017;-68
2022/05/01 01:00:27;;;;;;;0.52;0.52;;;20.10;49.40;;;;;;6261634;28;20155;-68
2022/05/01 01:03:28;;;;;;;1.08;0.60;;;20.10;49.40;;;;;;6266122;28;20025;-68
2022/05/01 01:06:29;;;;;;;0.70;0.50;;;20.10;49.40;;;;;;6266181;28;20475;-68
2022/05/01 01:09:31;;;;;;;0.35;0.30;;;20.10;49.40;;;;;;6264020;28;20052;-68
2022/05/01 01:15:51;;;;;;;0.55;0.45;;;20.10;49.40;;;;;;6266747;28;20028;-69
2022/05/01 01:18:53;;;;;;;0.50;0.50;;;20.10;49.40;;;;;;6266136;28;20075;-66
2022/05/01 01:21:55;;;;;;;0.60;0.50;;;20.10;49.40;;;;;;6266792;28;20024;-67
2022/05/01 01:24:56;;;;;;;0.60;0.52;;;20.10;49.40;;;;;;6265947;28;20419;-66
2022/05/01 01:28:05;;;;;;;0.65;0.43;;;20.10;49.40;;;;;;6266448;28;20017;-68
2022/05/01 01:34:34;;;;;;;0.65;0.60;;;20.10;49.40;;;;;;6265481;28;20091;-68
2022/05/01 01:37:35;;;;;;;0.73;0.60;;;20.10;49.40;;;;;;6265826;28;20055;-68
2022/05/01 01:40:57;;;;;;;0.50;0.50;;;20.10;49.40;;;;;;6247728;28;20025;-69
2022/05/01 01:43:59;;;;;;;0.50;0.45;;;20.10;49.40;;;;;;6265483;28;20388;-68
2022/05/01 01:47:00;;;;;;;2.45;0.40;;;20.10;49.40;;;;;;6266264;28;20033;-68
2022/05/01 01:50:01;;;;;;;0.40;0.40;;;20.10;49.40;;;;;;6268654;28;20483;-68
2022/05/01 01:53:02;;;;;;;1.13;0.50;;;20.10;49.50;;;;;;6269948;28;20475;-68
2022/05/01 01:56:04;;;;;;;0.98;0.40;;;20.10;49.40;;;;;;6252646;28;20045;-68
2022/05/01 01:59:05;;;;;;;0.52;0.50;;;20.10;49.50;;;;;;6271071;28;20024;-68
2022/05/01 02:02:08;;;;;;;0.88;0.47;;;20.10;49.40;;;;;;6270689;28;20025;-69
2022/05/01 02:05:09;;;;;;;0.65;0.40;;;20.10;49.40;;;;;;6270786;28;20020;-68
2022/05/01 02:08:11;;;;;;;0.70;0.50;;;20.10;49.40;;;;;;6270010;28;20108;-68
2022/05/01 02:11:12;;;;;;;1.30;0.55;;;20.10;49.40;;;;;;6271000;28;20021;-68
2022/05/01 02:14:13;;;;;;;0.40;0.40;;;20.10;49.50;;;;;;6270353;28;20075;-68
2022/05/01 02:17:13;;;;;;;0.35;0.35;;;20.10;49.40;;;;;;6268998;28;20116;-68
2022/05/01 02:20:14;;;;;;;0.60;0.50;;;20.10;49.40;;;;;;6252292;28;20028;-68
2022/05/01 02:23:19;;;;;;;0.50;0.40;;;20.10;49.50;;;;;;6270018;28;20025;-68
2022/05/01 02:26:19;;;;;;;0.50;0.47;;;20.10;49.40;;;;;;6269646;28;20021;-69
2022/05/01 02:29:20;;;;;;;0.63;0.47;;;20.10;49.40;;;;;;6268490;28;20079;-69
2022/05/01 02:32:21;;;;;;;0.90;0.60;;;20.10;49.50;;;;;;6269235;28;20071;-68
2022/05/01 02:35:21;;;;;;;0.55;0.40;;;20.10;49.50;;;;;;6269333;28;20028;-68
2022/05/01 02:38:22;;;;;;;0.60;0.40;;;20.10;49.50;;;;;;6251474;28;20415;-68
2022/05/01 02:41:23;;;;;;;0.75;0.40;;;20.10;49.50;;;;;;6269231;28;20040;-68
2022/05/01 02:44:24;;;;;;;0.63;0.50;;;20.10;49.50;;;;;;6269348;28;20024;-68
2022/05/01 02:47:24;;;;;;;0.90;0.45;;;20.10;49.50;;;;;;6268997;28;20494;-69
2022/05/01 02:50:25;;;;;;;0.68;0.40;;;20.10;49.50;;;;;;6268955;28;20428;-69
2022/05/01 02:53:26;;;;;;;0.65;0.50;;;20.10;49.50;;;;;;6269390;28;20057;-67
2022/05/01 02:56:27;;;;;;;0.40;0.38;;;20.10;49.50;;;;;;6269600;28;20052;-66
2022/05/01 02:59:28;;;;;;;0.57;0.40;;;20.10;49.50;;;;;;6269705;28;20491;-67
2022/05/01 03:02:29;;;;;;;0.32;0.32;;;20.10;49.50;;;;;;6268864;28;20059;-66
2022/05/01 03:05:30;;;;;;;0.40;0.40;;;20.10;49.50;;;;;;6268874;28;20036;-68
2022/05/01 03:08:31;;;;;;;0.63;0.50;;;20.10;49.50;;;;;;6268946;28;20289;-69
2022/05/01 03:11:32;;;;;;;0.50;0.40;;;20.10;49.50;;;;;;6268757;28;20086;-68
2022/05/01 03:14:33;;;;;;;0.50;0.40;;;20.10;49.50;;;;;;6268546;28;20060;-69
2022/05/01 03:24:13;;;;;;;0.80;0.40;;;20.10;49.50;;;;;;6269121;28;20063;-68
2022/05/01 03:27:13;;;;;;;0.50;0.45;;;20.10;49.50;;;;;;6268841;28;20039;-68
2022/05/01 03:30:17;;;;;;;0.55;0.45;;;20.10;49.50;;;;;;6263657;28;20021;-68
2022/05/01 03:33:21;;;;;;;0.52;0.38;;;20.10;49.50;;;;;;6244851;28;20026;-68
2022/05/01 03:36:21;;;;;;;0.40;0.40;;;20.10;49.50;;;;;;6244828;28;20586;-69
2022/05/01 03:39:22;;;;;;;0.50;0.40;;;20.10;49.50;;;;;;6244096;28;20018;-68
2022/05/01 03:42:23;;;;;;;0.60;0.50;;;20.10;49.50;;;;;;6244125;28;20017;-69
2022/05/01 03:45:23;;;;;;;0.98;0.70;;;20.10;49.50;;;;;;6244302;28;20029;-68
2022/05/01 03:48:24;;;;;;;0.73;0.40;;;20.10;49.50;;;;;;6243493;28;20029;-68
2022/05/01 03:51:25;;;;;;;0.65;0.40;;;20.10;49.50;;;;;;6243456;28;20026;-68
2022/05/01 03:54:26;;;;;;;0.85;0.55;;;20.20;49.60;;;;;;6263456;28;20078;-69
2022/05/01 03:57:27;;;;;;;0.43;0.32;;;20.10;49.50;;;;;;6268304;28;20238;-68
2022/05/01 04:00:27;;;;;;;0.43;0.43;;;20.10;49.50;;;;;;6250364;28;20040;-69
2022/05/01 04:03:28;;;;;;;0.40;0.40;;;20.10;49.50;;;;;;6268530;28;20075;-70
2022/05/01 04:06:29;;;;;;;0.60;0.40;;;20.10;49.50;;;;;;6268867;28;20051;-68
2022/05/01 04:09:29;;;;;;;0.60;0.60;;;20.10;49.50;;;;;;6267965;28;20052;-70
2022/05/01 04:12:44;;;;;;;0.57;0.50;;;20.10;50.20;;;;;;6268042;28;20479;-68
2022/05/01 04:15:45;;;;;;;0.50;0.30;;;20.10;49.50;;;;;;6268084;28;20036;-67
2022/05/01 04:18:45;;;;;;;0.57;0.45;;;20.10;49.50;;;;;;6268058;28;20056;-68
2022/05/01 04:21:46;;;;;;;0.52;0.30;;;20.10;49.50;;;;;;6268020;28;20047;-68
2022/05/01 04:24:46;;;;;;;0.50;0.50;;;20.10;49.50;;;;;;6268058;28;20032;-68
2022/05/01 04:27:52;;;;;;;0.70;0.60;;;20.10;49.50;;;;;;6268001;28;20028;-67
2022/05/01 04:30:54;;;;;;;0.73;0.40;;;20.10;49.50;;;;;;6239426;28;20041;-69
2022/05/01 04:33:54;;;;;;;0.57;0.40;;;20.10;49.60;;;;;;6242988;28;20053;-70
2022/05/01 04:36:55;;;;;;;0.55;0.55;;;20.10;49.50;;;;;;6242867;28;20392;-68
2022/05/01 04:39:55;;;;;;;0.77;0.40;;;20.10;49.50;;;;;;6242482;28;20014;-68
2022/05/01 04:43:11;;;;;;;0.40;0.30;;;20.10;49.50;;;;;;6240088;28;20032;-68
2022/05/01 04:46:11;;;;;;;0.30;0.30;;;20.10;49.50;;;;;;6267148;28;20076;-69
2022/05/01 04:49:12;;;;;;;0.73;0.40;;;20.10;49.50;;;;;;6248936;28;20029;-69
2022/05/01 04:52:13;;;;;;;0.70;0.47;;;20.10;49.60;;;;;;6249051;28;20025;-70
2022/05/01 04:55:13;;;;;;;0.35;0.30;;;20.10;49.50;;;;;;6267000;28;20036;-69
2022/05/01 04:58:15;;;;;;;0.55;0.40;;;20.10;49.50;;;;;;6267030;28;20021;-69
2022/05/01 05:01:16;;;;;;;0.45;0.35;;;20.10;49.50;;;;;;6266303;28;20025;-70
2022/05/01 05:04:16;;;;;;;1.30;0.50;;;20.10;49.50;;;;;;6266718;28;20114;-70
2022/05/01 05:07:17;;;;;;;0.73;0.50;;;20.10;49.50;;;;;;6266869;28;20025;-69
2022/05/01 05:10:17;;;;;;;0.63;0.40;;;20.10;49.50;;;;;;6266723;28;20103;-70
2022/05/01 05:13:24;;;;;;;0.30;0.30;;;20.10;49.50;;;;;;6266599;28;20100;-70
2022/05/01 05:16:24;;;;;;;0.30;0.30;;;20.10;49.60;;;;;;6266671;28;20018;-69
2022/05/01 05:19:25;;;;;;;0.40;0.40;;;20.10;49.60;;;;;;6266629;28;20431;-69
2022/05/01 05:22:26;;;;;;;0.50;0.32;;;20.10;49.50;;;;;;6248680;28;20060;-69
2022/05/01 05:25:27;;;;;;;0.60;0.40;;;20.10;49.50;;;;;;6270194;28;20113;-69
2022/05/01 05:28:28;;;;;;;0.73;0.40;;;20.10;49.50;;;;;;6271628;28;20036;-69
2022/05/01 05:31:28;;;;;;;0.57;0.32;;;20.10;49.60;;;;;;6271469;28;20060;-70
2022/05/01 05:34:29;;;;;;;0.57;0.47;;;20.10;49.60;;;;;;6271124;28;20057;-69
2022/05/01 05:37:31;;;;;;;0.30;0.30;;;20.10;49.60;;;;;;6271615;28;20063;-69
2022/05/01 05:40:31;;;;;;;0.68;0.40;;;20.10;49.50;;;;;;6271286;28;20027;-70
2022/05/01 05:43:32;;;;;;;0.40;0.40;;;20.10;49.60;;;;;;6271414;28;20037;-70
2022/05/01 05:46:32;;;;;;;0.35;0.30;;;20.10;49.50;;;;;;6271074;28;20079;-69
2022/05/01 05:49:33;;;;;;;0.40;0.40;;;20.10;49.60;;;;;;6271406;28;20029;-70
2022/05/01 05:52:34;;;;;;;0.40;0.40;;;20.10;49.60;;;;;;6271529;28;20063;-69
2022/05/01 05:55:35;;;;;;;0.30;0.30;;;20.10;49.50;;;;;;6271111;28;20033;-70
2022/05/01 05:58:35;;;;;;;0.30;0.30;;;20.10;49.50;;;;;;6271160;28;20682;-70
2022/05/01 06:01:36;;;;;;;0.35;0.35;;;20.10;49.60;;;;;;6253084;28;20670;-69
2022/05/01 06:04:37;;;;;;;0.40;0.40;;;20.10;49.60;;;;;;6271143;28;20025;-70
2022/05/01 06:07:38;;;;;;;0.30;0.30;;;20.10;49.60;;;;;;6252903;28;20395;-69
2022/05/01 06:10:38;;;;;;;0.47;0.30;;;20.10;49.50;;;;;;6270773;28;20067;-68
2022/05/01 06:13:39;;;;;;;0.28;0.28;;;20.10;49.50;;;;;;6271477;28;20025;-68
2022/05/01 06:16:40;;;;;;;0.98;0.43;;;20.10;49.50;;;;;;6270617;28;20025;-69
2022/05/01 06:19:40;;;;;;;0.52;0.43;;;20.10;49.60;;;;;;6269559;28;20056;-68
2022/05/01 06:22:41;;;;;;;0.75;0.40;;;20.10;49.50;;;;;;6270638;28;20112;-68
2022/05/01 06:25:46;;;;;;;0.73;0.35;;;20.10;49.50;;;;;;6252460;28;20035;-69
2022/05/01 06:28:47;;;;;;;0.35;0.30;;;20.10;49.60;;;;;;6252377;28;20052;-68
2022/05/01 06:31:48;;;;;;;0.30;0.30;;;20.10;49.50;;;;;;6270507;28;20021;-69
2022/05/01 06:34:51;;;;;;;0.55;0.50;;;20.10;49.60;;;;;;6251618;28;20043;-70
2022/05/01 06:37:51;;;;;;;0.60;0.40;;;20.10;49.60;;;;;;6270230;28;20021;-69
2022/05/01 06:40:52;;;;;;;0.70;0.38;;;20.10;49.60;;;;;;6269956;28;20498;-69
2022/05/01 06:43:53;;;;;;;0.55;0.43;;;20.10;49.60;;;;;;6269607;28;20563;-69
2022/05/01 06:46:53;;;;;;;0.43;0.30;;;20.10;49.60;;;;;;6269655;28;20498;-68
2022/05/01 06:49:54;;;;;;;0.40;0.40;;;20.10;49.60;;;;;;6269762;28;20036;-70
2022/05/01 06:52:55;;;;;;;0.43;0.40;;;20.10;49.60;;;;;;6269625;28;20602;-69
2022/05/01 06:55:58;;;;;;;0.50;0.40;;;20.10;49.60;;;;;;6251230;28;20021;-70
2022/05/01 06:58:59;;;;;;;0.50;0.43;;;20.10;49.60;;;;;;6269451;28;20039;-69
2022/05/01 07:01:59;;;;;;;0.30;0.30;;;20.10;49.60;;;;;;6251438;28;20677;-69
2022/05/01 07:05:00;;;;;;;0.30;0.30;;;20.10;49.60;;;;;;6269623;28;20033;-69
2022/05/01 07:08:00;;;;;;;0.40;0.40;;;20.10;49.60;;;;;;6269022;28;20071;-69
2022/05/01 07:11:01;;;;;;;0.40;0.30;;;20.10;49.60;;;;;;6269329;28;20047;-68
2022/05/01 07:14:02;;;;;;;1.00;0.50;;;20.10;49.60;;;;;;6268850;28;20056;-69
2022/05/01 07:17:02;;;;;;;0.20;0.20;;;20.10;49.60;;;;;;6251253;28;20036;-68
2022/05/01 07:20:04;;;;;;;0.38;0.35;;;20.10;49.60;;;;;;6269046;28;20096;-68
2022/05/01 07:23:06;;;;;;;0.30;0.30;;;20.10;49.60;;;;;;6269137;28;20036;-67
2022/05/01 07:26:06;;;;;;;0.40;0.30;;;20.10;49.60;;;;;;6268934;28;20024;-68
2022/05/01 07:29:08;;;;;;;0.40;0.40;;;20.10;49.60;;;;;;6268559;28;20652;-69
2022/05/01 07:32:09;;;;;;;0.60;0.40;;;20.10;49.60;;;;;;6268471;28;20100;-70
2022/05/01 07:35:10;;;;;;;0.35;0.35;;;20.10;49.60;;;;;;6268834;28;20028;-69
2022/05/01 07:38:10;;;;;;;0.30;0.30;;;20.10;49.60;;;;;;6268680;28;20629;-70
2022/05/01 07:41:11;;;;;;;0.40;0.28;;;20.10;49.60;;;;;;6268629;28;20357;-69
2022/05/01 07:44:11;;;;;;;0.43;0.40;;;20.10;49.60;;;;;;6268407;28;20108;-69
2022/05/01 07:47:12;;;;;;;0.22;0.22;;;20.10;49.60;;;;;;6267981;28;20021;-69
2022/05/01 07:50:14;;;;;;;0.50;0.43;;;20.10;49.70;;;;;;6250308;28;20041;-70
2022/05/01 07:53:16;;;;;;;0.20;0.20;;;20.10;49.60;;;;;;6268489;28;20024;-70
2022/05/01 07:56:17;;;;;;;0.20;0.20;;;20.10;49.60;;;;;;6268133;28;20495;-69
2022/05/01 07:59:17;;;;;;;0.50;0.40;;;20.10;49.60;;;;;;6268238;28;20028;-69
2022/05/01 08:02:18;;;;;;;0.30;0.30;;;20.10;49.60;;;;;;6267973;28;20029;-69
2022/05/01 08:05:23;;;;;;;0.20;0.20;;;20.10;49.70;;;;;;6268086;28;20033;-70
2022/05/01 08:08:23;;;;;;;0.40;0.32;;;20.10;49.70;;;;;;6267558;28;20045;-69
2022/05/01 08:11:24;;;;;;;0.30;0.30;;;20.10;49.70;;;;;;6268054;28;20044;-70
2022/05/01 08:14:24;;;;;;;0.47;0.32;;;20.10;49.60;;;;;;6267686;28;20452;-69
2022/05/01 08:17:25;;;;;;;0.40;0.40;;;20.10;49.60;;;;;;6267909;28;20033;-70
2022/05/01 08:23:45;;;;;;;0.28;0.28;;;20.10;49.70;;;;;;6267461;28;21022;-69
2022/05/01 08:26:48;;;;;;;0.32;0.30;;;20.10;49.60;;;;;;6267817;28;20070;-69
2022/05/01 08:29:48;;;;;;;0.30;0.30;;;20.10;49.60;;;;;;6265703;28;20401;-69
2022/05/01 08:32:49;;;;;;;0.32;0.30;;;20.10;49.60;;;;;;6225114;28;20033;-69
2022/05/01 08:35:50;;;;;;;0.17;0.17;;;20.10;49.60;;;;;;6242279;28;20103;-69
2022/05/01 08:38:51;;;;;;;0.30;0.30;;;20.10;49.60;;;;;;6224537;28;20107;-69
2022/05/01 08:41:52;;;;;;;0.30;0.30;;;20.10;49.60;;;;;;6242433;28;20046;-69
2022/05/01 08:44:52;;;;;;;0.30;0.30;;;20.10;49.60;;;;;;6255198;28;20043;-69
2022/05/01 08:48:07;;;;;;;0.93;0.40;;;20.10;49.70;;;;;;6249467;28;20183;-69
2022/05/01 08:51:08;;;;;;;0.22;0.22;;;20.10;49.60;;;;;;6249205;28;20131;-70
2022/05/01 08:54:13;;;;;;;0.30;0.30;;;20.10;49.60;;;;;;6267079;28;20029;-69
2022/05/01 08:57:20;;;;;;;0.40;0.40;;;20.10;49.60;;;;;;6267054;28;20112;-70
2022/05/01 09:00:21;;;;;;;0.28;0.28;;;20.10;49.60;;;;;;6248834;28;20047;-68
2022/05/01 09:03:22;;;;;;;0.35;0.30;;;20.10;49.60;;;;;;6249107;28;20120;-70
2022/05/01 09:06:24;;;;;;;0.30;0.30;;;20.10;49.60;;;;;;6267199;28;20021;-69
2022/05/01 09:09:25;;;;;;;0.50;0.35;;;20.10;49.60;;;;;;6266699;28;20098;-69
2022/05/01 09:15:45;;;;;;;0.25;0.25;;;20.10;49.70;;;;;;6266877;28;20112;-69
2022/05/01 09:18:47;;;;;;;0.45;0.30;;;20.10;49.60;;;;;;6266856;28;20062;-69
2022/05/01 09:21:50;;;;;;;0.30;0.30;;;20.10;49.70;;;;;;6266692;28;20141;-69
2022/05/01 09:24:54;;;;;;;0.40;0.30;;;20.10;49.70;;;;;;6266647;28;20048;-69
2022/05/01 09:28:05;;;;;;;0.30;0.30;;;20.10;49.70;;;;;;6248948;28;20032;-69
2022/05/01 09:31:06;;;;;;;0.38;0.22;;;20.10;49.60;;;;;;6266139;28;20025;-70
2022/05/01 09:34:31;;;;;;;0.30;0.30;;;20.10;49.70;;;;;;6266568;28;20150;-69
2022/05/01 09:37:31;;;;;;;0.45;0.30;;;20.10;49.70;;;;;;6266859;28;20033;-69
2022/05/01 09:40:32;;;;;;;0.30;0.30;;;20.10;49.60;;;;;;6266438;28;20056;-69
2022/05/01 09:43:41;;;;;;;0.40;0.30;;;20.10;49.70;;;;;;6266825;28;20037;-69
2022/05/01 09:46:46;;;;;;;0.38;0.30;;;20.10;49.70;;;;;;6266382;28;20021;-69
2022/05/01 09:49:49;;;;;;;0.20;0.20;;;20.10;49.70;;;;;;6248185;28;20025;-70
2022/05/01 09:53:01;;;;;;;0.30;0.30;;;20.10;49.70;;;;;;6248421;28;20090;-69
2022/05/01 09:56:02;;;;;;;0.40;0.30;;;20.10;49.70;;;;;;6266632;28;20029;-70
2022/05/01 09:59:03;;;;;;;0.25;0.20;;;20.10;50.40;;;;;;6266239;28;20480;-69
2022/05/01 10:02:06;;;;;;;0.38;0.30;;;20.10;49.60;;;;;;6266197;28;20029;-70
2022/05/01 10:05:08;;;;;;;0.47;0.40;;;20.10;49.70;;;;;;6264829;28;20518;-69
2022/05/01 10:08:10;;;;;;;0.75;0.28;;;20.10;49.60;;;;;;6264410;28;20235;-69
2022/05/01 10:11:16;;;;;;;0.30;0.30;;;20.10;49.70;;;;;;6268903;28;20037;-70
2022/05/01 10:14:20;;;;;;;0.25;0.20;;;20.10;49.70;;;;;;6270918;28;20021;-70
2022/05/01 10:17:21;;;;;;;0.20;0.20;;;20.10;49.70;;;;;;6269028;28;20025;-67
2022/05/01 10:20:21;;;;;;;0.20;0.20;;;20.10;49.70;;;;;;6270122;28;20048;-68
2022/05/01 10:23:22;;;;;;;0.40;0.30;;;20.10;49.70;;;;;;6253002;28;20045;-69
2022/05/01 10:26:34;;;;;;;0.43;0.17;;;20.10;49.70;;;;;;6270408;28;20079;-69
2022/05/01 10:29:39;;;;;;;0.20;0.20;;;20.10;49.70;;;;;;6270360;28;20110;-69
2022/05/01 10:32:55;;;;;;;0.30;0.30;;;20.10;49.70;;;;;;6270347;28;20025;-70
2022/05/01 10:36:02;;;;;;;;;;;20.10;49.70;;;;;;6270744;28;20036;-70
2022/05/01 10:39:11;;;;;;;0.50;0.30;;;20.10;49.70;;;;;;6268856;28;20363;-69
2022/05/01 10:42:30;;;;;;;0.20;0.20;;;20.10;49.70;;;;;;6269925;28;20028;-70
2022/05/01 10:45:30;;;;;;;0.22;0.22;;;20.10;49.70;;;;;;6269770;28;20044;-70
2022/05/01 10:48:38;;;;;;;0.30;0.30;;;20.10;49.70;;;;;;6269923;28;20097;-71
2022/05/01 10:51:42;;;;;;;0.20;0.20;;;20.10;49.70;;;;;;6269437;28;20082;-70
2022/05/01 10:54:54;;;;;;;0.35;0.22;;;20.10;49.70;;;;;;6251627;28;20025;-70
2022/05/01 10:58:21;;;;;;;0.20;0.20;;;20.10;49.70;;;;;;6252085;28;20588;-69
2022/05/01 11:01:52;;;;;;;0.52;0.30;;;20.10;49.70;;;;;;6269589;28;20025;-69
2022/05/01 11:04:54;;;;;;;0.30;0.30;;;20.10;49.70;;;;;;6269599;28;20044;-70
2022/05/01 11:07:57;;;;;;;0.43;0.30;;;20.10;49.70;;;;;;6269024;28;20060;-69
2022/05/01 11:11:00;;;;;;;0.20;0.20;;;20.10;49.70;;;;;;6269308;28;20079;-71
2022/05/01 11:14:02;;;;;;;0.30;0.28;;;20.10;49.70;;;;;;6259250;28;20056;-71
2022/05/01 11:17:02;;;;;;;0.43;0.40;;;20.10;49.70;;;;;;6260629;28;20031;-71
2022/05/01 11:20:10;;;;;;;0.35;0.30;;;20.10;49.70;;;;;;6267003;28;20013;-72
2022/05/01 11:23:42;;;;;;;0.20;0.20;;;20.10;49.70;;;;;;6265567;28;20028;-71
2022/05/01 11:27:16;;;;;;;0.28;0.20;;;20.10;49.70;;;;;;6247788;28;20029;-71
2022/05/01 11:30:36;;;;;;;0.73;0.30;;;20.10;49.70;;;;;;6258690;28;20419;-71
2022/05/01 11:33:37;;;;;;;0.20;0.20;;;20.10;49.70;;;;;;6224471;28;20064;-72
2022/05/01 11:36:57;;;;;;;0.30;0.30;;;20.10;49.70;;;;;;6242222;28;20026;-72
2022/05/01 11:39:57;;;;;;;0.20;0.20;;;20.10;49.70;;;;;;6242052;28;20481;-73
2022/05/01 11:43:15;;;;;;;0.20;0.20;;;20.10;49.70;;;;;;6246541;28;20040;-71
2022/05/01 11:46:19;;;;;;;0.47;0.30;;;20.10;49.70;;;;;;6266562;28;20064;-72
2022/05/01 11:49:20;;;;;;;0.52;0.30;;;20.10;49.70;;;;;;6266434;28;20025;-71
2022/05/01 11:52:22;;;;;;;0.40;0.22;;;20.10;49.70;;;;;;6266678;28;20037;-71
2022/05/01 12:02:24;;;;;;;0.20;0.20;;;20.10;49.70;;;;;;6248548;28;20025;-71
2022/05/01 12:05:23;;;;;;;0.20;0.20;;;20.10;49.70;;;;;;6266682;28;20556;-72
2022/05/01 12:08:24;;;;;;;0.45;0.32;;;20.10;49.70;;;;;;6254472;28;20076;-71
2022/05/01 12:11:28;;;;;;;0.20;0.20;;;20.10;49.70;;;;;;6241710;28;20400;-71
2022/05/01 12:14:29;;;;;;;0.30;0.30;;;20.10;49.70;;;;;;6256402;28;20039;-71
2022/05/01 12:17:32;;;;;;;0.20;0.20;;;20.10;49.80;;;;;;6266026;28;20022;-71
2022/05/01 12:20:36;;;;;;;0.40;0.30;;;20.10;49.70;;;;;;6266013;28;20025;-71
2022/05/01 12:23:46;;;;;;;0.30;0.25;;;20.10;49.80;;;;;;6258686;28;20082;-72
2022/05/01 12:26:52;;;;;;;0.30;0.28;;;20.10;49.70;;;;;;6247390;28;20037;-71
2022/05/01 12:29:55;;;;;;;0.20;0.20;;;20.10;49.80;;;;;;6264488;28;20029;-70
2022/05/01 12:32:58;;;;;;;0.52;0.30;;;20.10;49.70;;;;;;6265486;28;20535;-72
2022/05/01 12:35:59;;;;;;;0.20;0.20;;;20.10;49.80;;;;;;6265351;28;20025;-71
2022/05/01 12:39:01;;;;;;;0.20;0.20;;;20.10;49.80;;;;;;6265682;28;20013;-70
2022/05/01 12:45:36;;;;;;;0.30;0.30;;;20.10;49.80;;;;;;6264792;28;20064;-71
2022/05/01 12:48:41;;;;;;;0.20;0.20;;;20.10;49.80;;;;;;6247842;28;20403;-71
2022/05/01 12:51:42;;;;;;;1.45;0.20;;;20.10;49.80;;;;;;6266178;28;20531;-71
2022/05/01 12:55:15;;;;;;;0.20;0.20;;;20.10;49.80;;;;;;6265340;28;20048;-70
2022/05/01 12:58:27;;;;;;;0.73;0.30;;;20.10;49.80;;;;;;6265155;28;20522;-69
2022/05/01 13:01:29;;;;;;;0.30;0.30;;;20.10;49.80;;;;;;6239573;28;20053;-69
2022/05/01 13:04:30;;;;;;;0.30;0.20;;;20.10;49.80;;;;;;6264730;28;20033;-69
2022/05/01 13:07:34;;;;;;;0.20;0.20;;;20.10;49.80;;;;;;6260109;28;20040;-69
2022/05/01 13:10:35;;;;;;;0.38;0.20;;;20.10;49.80;;;;;;6242263;28;20115;-68
2022/05/01 13:14:05;;;;;;;0.30;0.30;;;20.10;49.90;;;;;;6264987;28;20033;-69
2022/05/01 13:17:11;;;;;;;1.13;0.30;;;20.10;49.80;;;;;;6262835;28;20037;-70
2022/05/01 13:20:11;;;;;;;0.20;0.20;;;20.10;49.90;;;;;;6264368;28;20091;-69
2022/05/01 13:23:12;;;;;;;0.20;0.20;;;20.10;49.90;;;;;;6258326;28;20112;-70
2022/05/01 13:26:13;;;;;;;0.25;0.25;;;20.10;49.90;;;;;;6239810;28;20623;-72
2022/05/01 13:29:14;;;;;;;0.20;0.20;;;20.10;49.90;;;;;;6239665;28;20030;-69
2022/05/01 13:32:17;;;;;;;0.22;0.22;;;20.10;49.80;;;;;;6248539;28;20028;-69
2022/05/01 13:35:18;;;;;;;0.20;0.20;;;20.10;49.80;;;;;;6264344;28;20078;-69
2022/05/01 13:38:18;;;;;;;0.73;0.30;;;20.10;49.90;;;;;;6264131;28;20033;-69
2022/05/01 13:44:54;;;;;;;0.32;0.20;;;20.10;49.80;;;;;;6264208;28;20026;-69
2022/05/01 13:47:55;;;;;;;1.83;0.20;;;20.10;49.90;;;;;;6268879;28;20028;-69
2022/05/01 13:50:56;;;;;;;0.30;0.20;;;20.10;49.80;;;;;;6269698;28;20017;-69
2022/05/01 13:53:57;;;;;;;1.30;0.28;;;20.10;49.90;;;;;;6268171;28;20071;-70
2022/05/01 13:56:58;;;;;;;0.10;0.10;;;20.10;49.90;;;;;;6268936;28;20108;-69
2022/05/01 13:59:59;;;;;;;0.20;0.20;;;20.10;49.80;;;;;;6269202;28;20104;-69
2022/05/01 14:03:00;;;;;;;0.47;0.25;;;20.10;49.80;;;;;;6263564;28;20033;-69
2022/05/01 14:06:00;;;;;;;0.77;0.20;;;20.10;49.80;;;;;;6261417;28;20075;-68
2022/05/01 14:09:04;;;;;;;0.82;0.20;;;20.10;49.80;;;;;;6263633;28;20131;-68
2022/05/01 14:12:06;;;;;;;0.43;0.20;;;20.10;49.80;;;;;;6263481;28;20028;-71
2022/05/01 14:15:08;;;;;;;0.30;0.30;;;20.10;49.80;;;;;;6266741;28;20060;-70
2022/05/01 14:18:10;;;;;;;0.20;0.20;;;20.10;49.80;;;;;;6250704;28;20029;-70
2022/05/01 14:21:16;;;;;;;0.30;0.30;;;20.10;49.80;;;;;;6268668;28;20623;-70
2022/05/01 14:24:16;;;;;;;;;;;20.10;49.80;;;;;;6250600;28;20025;-70
2022/05/01 14:27:18;;;;;;;0.22;0.20;;;20.10;49.80;;;;;;6268658;28;19912;-69
2022/05/01 14:30:18;;;;;;;0.15;0.15;;;20.10;49.80;;;;;;6250285;28;20171;-70
2022/05/01 14:33:42;;;;;;;0.10;0.10;;;20.10;49.90;;;;;;6266794;28;20033;-69
2022/05/01 14:36:47;;;;;;;0.20;0.20;;;20.10;49.80;;;;;;6262876;28;20021;-69
2022/05/01 14:39:51;;;;;;;1.08;0.20;;;20.10;49.90;;;;;;6268295;28;20561;-68
2022/05/01 14:42:53;;;;;;;2.63;0.22;;;20.10;49.90;;;;;;6268062;28;20087;-68
2022/05/01 14:46:02;;;;;;;0.35;0.20;;;20.10;49.80;;;;;;6268145;28;20467;-69
2022/05/01 14:49:41;;;;;;;0.30;0.25;;;20.10;49.80;;;;;;6267998;28;20033;-69
2022/05/01 14:52:42;;;;;;;1.73;0.30;;;20.10;49.90;;;;;;6250019;28;20024;-68
2022/05/01 14:55:45;;;;;;;1.38;0.30;;;20.10;49.90;;;;;;6267912;28;20028;-68
2022/05/01 15:08:51;;;;;;;1.13;0.32;;;20.10;49.80;;;;;;6267921;28;20052;-71
2022/05/01 15:11:52;;;;;;;5.22;0.20;;;20.10;49.90;;;;;;6268526;28;20017;-68
2022/05/01 15:14:52;;;;;;;2.15;0.40;;;20.10;49.80;;;;;;6261751;28;20025;-69
2022/05/01 15:17:54;;;;;;;6.47;0.57;;;20.10;49.90;;;;;;6267389;28;20025;-70
2022/05/01 15:21:12;;;;;;;0.30;0.20;;;20.10;49.80;;;;;;6267785;28;20021;-68
2022/05/01 15:24:13;;;;;;;1.75;0.20;;;20.10;49.90;;;;;;6265116;28;20719;-69
2022/05/01 15:27:28;;;;;;;7.38;0.65;;;20.10;49.80;;;;;;6267818;28;20029;-69
2022/05/01 15:30:35;;;;;;;0.45;0.30;;;20.10;49.90;;;;;;6267191;28;20484;-69
2022/05/01 15:33:43;;;;;;;0.98;0.30;;;20.10;49.90;;;;;;6266914;28;20021;-69
2022/05/01 15:36:47;;;;;;;1.00;0.32;;;20.10;49.90;;;;;;6249242;28;20100;-68
2022/05/01 15:39:58;;;;;;;0.77;0.30;;;20.10;49.90;;;;;;6267205;28;20013;-68
2022/05/01 15:42:59;;;;;;;1.33;0.30;;;20.10;49.90;;;;;;6267224;28;20021;-70
2022/05/01 15:46:02;;;;;;;2.05;0.30;;;20.10;49.90;;;;;;6266793;28;20495;-69
2022/05/01 15:55:45;;;;;;;0.40;0.30;;;20.10;49.90;;;;;;6260526;28;20068;-69
2022/05/01 15:58:45;;;;;;;1.85;0.38;;;20.10;50.50;;;;;;6266429;28;20025;-69
2022/05/01 16:01:46;;;;;;;1.30;0.30;;;20.10;49.90;;;;;;6266528;28;20079;-68
2022/05/01 16:04:47;;;;;;;0.70;0.30;;;20.10;49.90;;;;;;6266312;28;20588;-68
2022/05/01 16:07:58;;;;;;;2.35;0.40;;;20.10;50.60;;;;;;6265317;28;20020;-69
2022/05/01 16:11:04;;;;;;;2.25;0.55;;;20.10;49.90;;;;;;6265963;28;20183;-69
2022/05/01 16:14:13;;;;;;;2.35;0.30;;;20.10;50.30;;;;;;6265554;28;20502;-68
2022/05/01 16:17:35;;;;;;;2.60;0.40;;;20.10;49.90;;;;;;6265963;28;20017;-69
2022/05/01 16:20:39;;;;;;;1.45;0.47;;;20.10;49.90;;;;;;6266018;28;20029;-69
2022/05/01 16:23:46;;;;;;;1.00;0.20;;;20.10;49.90;;;;;;6265921;28;20610;-70
2022/05/01 16:26:55;;;;;;;0.70;0.25;;;20.10;49.90;;;;;;6260754;28;20029;-70
2022/05/01 16:29:58;;;;;;;1.27;0.20;;;20.10;49.90;;;;;;6239617;28;20381;-69
2022/05/01 16:33:12;;;;;;;1.33;0.30;;;20.10;49.90;;;;;;6240928;28;20030;-68
2022/05/01 16:36:23;;;;;;;2.53;0.50;;;20.10;49.90;;;;;;6247861;28;20021;-68
2022/05/01 16:39:24;;;;;;;1.08;0.30;;;20.10;49.90;;;;;;6247329;28;20017;-69
2022/05/01 16:42:26;;;;;;;2.13;0.50;;;20.10;50.60;;;;;;6265581;28;20025;-69
2022/05/01 16:45:29;;;;;;;0.90;0.40;;;20.10;49.90;;;;;;6263588;28;20516;-68
2022/05/01 16:48:34;;;;;;;1.38;0.35;;;20.10;49.90;;;;;;6265855;28;20025;-71
2022/05/01 16:51:36;;;;;;;2.05;0.35;;;20.10;50.00;;;;;;6264258;28;20492;-68
2022/05/01 16:54:39;;;;;;;0.65;0.30;;;20.10;50.00;;;;;;6264844;28;20025;-69